Time;durP1;ratioP1;P1;durP2;ratioP2;P2;SDS_P1;SDS_P2;PMS_P1;PMS_P2;Temp;Humidity;BMP_temperature;BMP_pressure;BME280_temperature;BME280_humidity;BME280_pressure;Samples;Min_cycle;Max_cycle;Signal;HPM_P1;HPM_P2
2022/12/31 00:01:49;;;;;;;14.27;6.43;;;;;;;;;;4914208;29;20223;-61
2022/12/31 00:04:15;;;;;;;10.43;3.57;;;;;;;;;;4915120;29;20184;-61
2022/12/31 00:06:42;;;;;;;11.67;3.13;;;;;;;;;;4916645;29;20294;-60
2022/12/31 00:09:09;;;;;;;7.97;4.83;;;;;;;;;;4916929;29;20187;-60
2022/12/31 00:11:36;;;;;;;8.73;3.90;;;;;;;;;;4916960;29;20203;-60
2022/12/31 00:14:02;;;;;;;12.30;5.17;;;;;;;;;;4916570;29;20183;-60
2022/12/31 00:16:30;;;;;;;12.33;6.50;;;;;;;;;;4916809;29;20199;-60
2022/12/31 00:19:00;;;;;;;15.67;5.50;;;;;;;;;;4916375;29;20191;-60
2022/12/31 00:21:29;;;;;;;8.47;5.10;;;;;;;;;;4916337;29;20235;-60
2022/12/31 00:23:56;;;;;;;9.57;5.43;;;;;;;;;;4916937;29;20191;-60
2022/12/31 00:26:23;;;;;;;14.40;5.93;;;;;;;;;;4912362;29;20279;-60
2022/12/31 00:28:51;;;;;;;10.53;5.67;;;;;;;;;;4897539;29;20181;-60
2022/12/31 00:31:21;;;;;;;10.83;5.63;;;;;;;;;;4897613;29;20200;-59
2022/12/31 00:33:48;;;;;;;8.50;4.93;;;;;;;;;;4897735;29;20559;-61
2022/12/31 00:36:18;;;;;;;8.83;4.53;;;;;;;;;;4914911;29;20189;-60
2022/12/31 00:38:45;;;;;;;12.23;5.33;;;;;;;;;;4935284;29;20226;-60
2022/12/31 00:41:12;;;;;;;10.27;5.13;;;;;;;;;;4913895;29;20222;-60
2022/12/31 00:43:56;;;;;;;9.80;4.40;;;;;;;;;;4916098;29;20258;-59
2022/12/31 00:46:23;;;;;;;6.60;3.57;;;;;;;;;;4915282;29;20741;-60
2022/12/31 00:48:50;;;;;;;7.17;3.80;;;;;;;;;;4914834;29;20179;-60
2022/12/31 00:51:17;;;;;;;13.27;6.17;;;;;;;;;;4906028;29;20230;-61
2022/12/31 00:53:44;;;;;;;11.40;4.93;;;;;;;;;;4908349;29;20365;-60
2022/12/31 00:56:14;;;;;;;11.93;6.10;;;;;;;;;;4908401;29;20659;-60
2022/12/31 00:58:41;;;;;;;10.73;5.30;;;;;;;;;;4914020;29;20869;-60
2022/12/31 01:01:08;;;;;;;10.20;5.80;;;;;;;;;;4899235;29;20200;-60
2022/12/31 01:03:54;;;;;;;10.47;6.03;;;;;;;;;;4916230;29;20307;-60
2022/12/31 01:06:20;;;;;;;11.30;6.23;;;;;;;;;;4914887;29;20225;-60
2022/12/31 01:08:47;;;;;;;11.67;6.67;;;;;;;;;;4912929;29;20286;-60
2022/12/31 01:11:23;;;;;;;11.10;5.30;;;;;;;;;;4915357;29;20192;-60
2022/12/31 01:13:59;;;;;;;13.63;6.17;;;;;;;;;;4915357;29;20203;-60
2022/12/31 01:16:30;;;;;;;10.50;5.57;;;;;;;;;;4914758;29;20206;-60
2022/12/31 01:18:57;;;;;;;13.20;6.57;;;;;;;;;;4915671;29;20260;-60
2022/12/31 01:21:24;;;;;;;14.03;7.00;;;;;;;;;;4927618;29;20856;-61
2022/12/31 01:23:51;;;;;;;13.90;5.80;;;;;;;;;;4915854;29;20207;-60
2022/12/31 01:26:18;;;;;;;10.67;5.53;;;;;;;;;;4915119;29;20254;-60
2022/12/31 01:28:44;;;;;;;11.30;5.40;;;;;;;;;;4928733;29;20196;-60
2022/12/31 01:31:14;;;;;;;11.97;5.43;;;;;;;;;;4914900;29;20199;-61
2022/12/31 01:33:41;;;;;;;10.43;5.50;;;;;;;;;;4915312;29;20228;-60
2022/12/31 01:36:12;;;;;;;12.63;6.63;;;;;;;;;;4914592;29;20207;-60
2022/12/31 01:38:39;;;;;;;8.43;5.00;;;;;;;;;;4913788;29;20203;-60
2022/12/31 01:41:05;;;;;;;12.03;6.00;;;;;;;;;;4914842;29;20184;-60
2022/12/31 02:18:59;;;;;;;11.23;5.07;;;;;;;;;;4927052;29;20179;-60
2022/12/31 02:21:31;;;;;;;12.13;4.93;;;;;;;;;;4914011;29;20222;-60
2022/12/31 02:24:17;;;;;;;11.33;5.90;;;;;;;;;;4914777;29;20211;-60
2022/12/31 02:26:59;;;;;;;9.23;4.87;;;;;;;;;;4903973;29;20230;-60
2022/12/31 02:29:40;;;;;;;9.97;5.83;;;;;;;;;;4914538;29;20262;-60
2022/12/31 02:32:12;;;;;;;6.67;3.90;;;;;;;;;;4926947;29;20667;-65
2022/12/31 02:34:59;;;;;;;8.60;4.53;;;;;;;;;;4927662;29;20270;-60
2022/12/31 02:37:26;;;;;;;8.43;4.33;;;;;;;;;;4910320;29;20211;-60
2022/12/31 02:39:53;;;;;;;9.60;5.40;;;;;;;;;;4927377;29;20192;-60
2022/12/31 02:42:19;;;;;;;7.20;3.30;;;;;;;;;;4926825;29;20246;-60
2022/12/31 02:44:46;;;;;;;7.90;5.27;;;;;;;;;;4920911;29;20191;-60
2022/12/31 02:47:13;;;;;;;9.20;5.20;;;;;;;;;;4912344;29;20965;-60
2022/12/31 02:49:59;;;;;;;10.50;5.30;;;;;;;;;;4913098;29;20556;-60
2022/12/31 02:52:32;;;;;;;8.33;5.27;;;;;;;;;;4913701;29;20612;-61
2022/12/31 02:55:04;;;;;;;11.33;5.83;;;;;;;;;;4900841;29;20203;-60
2022/12/31 02:57:39;;;;;;;8.30;3.87;;;;;;;;;;4912753;29;20281;-60
2022/12/31 03:02:52;;;;;;;8.10;3.90;;;;;;;;;;4913282;29;20279;-60
2022/12/31 03:05:20;;;;;;;10.67;4.97;;;;;;;;;;4910111;29;20210;-61
2022/12/31 03:07:47;;;;;;;8.67;4.37;;;;;;;;;;4894582;29;20196;-61
2022/12/31 03:10:13;;;;;;;8.73;4.30;;;;;;;;;;4924584;29;20674;-60
2022/12/31 03:12:47;;;;;;;5.43;2.97;;;;;;;;;;4912439;29;20196;-60
2022/12/31 03:15:26;;;;;;;7.10;4.60;;;;;;;;;;4897879;29;20198;-60
2022/12/31 03:18:01;;;;;;;11.47;5.17;;;;;;;;;;4913983;29;20210;-60
2022/12/31 03:23:14;;;;;;;7.00;3.73;;;;;;;;;;4912408;29;20219;-60
2022/12/31 03:25:41;;;;;;;10.70;4.60;;;;;;;;;;4912436;29;20220;-60
2022/12/31 03:28:10;;;;;;;6.13;3.10;;;;;;;;;;4913548;29;20212;-60
2022/12/31 03:30:38;;;;;;;6.20;3.60;;;;;;;;;;4911805;29;20603;-61
2022/12/31 03:33:05;;;;;;;7.67;3.77;;;;;;;;;;4913000;29;20223;-60
2022/12/31 03:35:32;;;;;;;4.73;2.87;;;;;;;;;;4911590;29;20199;-60
2022/12/31 03:37:59;;;;;;;8.43;4.50;;;;;;;;;;4911164;29;20745;-60
2022/12/31 03:40:26;;;;;;;5.47;2.67;;;;;;;;;;4912500;29;20567;-60
2022/12/31 03:42:52;;;;;;;7.87;4.20;;;;;;;;;;4913201;29;20211;-60
2022/12/31 03:45:19;;;;;;;6.70;3.83;;;;;;;;;;4912084;29;20191;-60
2022/12/31 03:48:04;;;;;;;7.63;4.23;;;;;;;;;;4911854;29;20188;-61
2022/12/31 03:50:30;;;;;;;7.00;3.60;;;;;;;;;;4903279;29;20199;-60
2022/12/31 03:52:57;;;;;;;9.50;4.57;;;;;;;;;;4912351;29;20200;-60
2022/12/31 03:55:24;;;;;;;6.10;4.17;;;;;;;;;;4910993;29;20195;-60
2022/12/31 03:57:51;;;;;;;9.43;5.67;;;;;;;;;;4913239;29;20235;-60
2022/12/31 04:00:18;;;;;;;12.43;6.80;;;;;;;;;;4925974;29;20199;-61
2022/12/31 04:02:45;;;;;;;11.70;6.70;;;;;;;;;;4910000;29;20233;-61
2022/12/31 04:05:12;;;;;;;12.73;6.40;;;;;;;;;;4910124;29;20192;-60
2022/12/31 04:07:39;;;;;;;8.17;5.60;;;;;;;;;;4902938;29;20846;-60
2022/12/31 04:10:06;;;;;;;8.50;5.23;;;;;;;;;;4910848;29;20187;-60
2022/12/31 04:12:33;;;;;;;7.83;4.97;;;;;;;;;;4913251;29;20176;-60
2022/12/31 04:15:00;;;;;;;7.43;4.53;;;;;;;;;;4912098;29;20278;-61
2022/12/31 04:17:26;;;;;;;5.83;3.60;;;;;;;;;;4907114;29;20203;-62
2022/12/31 04:19:53;;;;;;;10.77;6.93;;;;;;;;;;4897019;29;20243;-60
2022/12/31 04:22:20;;;;;;;13.10;7.37;;;;;;;;;;4911131;29;20238;-60
2022/12/31 04:24:46;;;;;;;12.47;6.70;;;;;;;;;;4911947;29;20203;-60
2022/12/31 04:27:13;;;;;;;12.60;6.97;;;;;;;;;;4896661;29;20635;-60
2022/12/31 04:29:57;;;;;;;6.77;5.03;;;;;;;;;;4911684;29;20175;-60
2022/12/31 04:32:24;;;;;;;13.00;7.23;;;;;;;;;;4912877;29;20187;-60
2022/12/31 04:35:08;;;;;;;12.33;7.03;;;;;;;;;;4914921;29;20195;-61
2022/12/31 04:37:35;;;;;;;10.90;6.10;;;;;;;;;;4914756;29;20191;-60
2022/12/31 04:40:21;;;;;;;15.43;8.03;;;;;;;;;;4915277;29;20182;-60
2022/12/31 04:42:47;;;;;;;14.30;7.67;;;;;;;;;;4915119;29;20211;-60
2022/12/31 04:45:32;;;;;;;13.20;8.17;;;;;;;;;;4915068;29;20695;-61
2022/12/31 04:47:58;;;;;;;8.63;5.90;;;;;;;;;;4916149;29;20195;-60
2022/12/31 04:50:25;;;;;;;7.73;5.30;;;;;;;;;;4914956;29;20199;-60
2022/12/31 04:52:52;;;;;;;12.67;6.73;;;;;;;;;;4912698;29;20665;-60
2022/12/31 04:55:18;;;;;;;16.37;8.50;;;;;;;;;;4914800;29;20920;-61
2022/12/31 04:57:45;;;;;;;12.43;7.03;;;;;;;;;;4913828;29;21013;-60
2022/12/31 05:00:12;;;;;;;10.47;6.67;;;;;;;;;;4915985;29;20612;-61
2022/12/31 05:02:39;;;;;;;8.23;5.20;;;;;;;;;;4915449;29;20215;-60
2022/12/31 05:05:23;;;;;;;8.80;6.57;;;;;;;;;;4915752;29;20258;-60
2022/12/31 05:07:50;;;;;;;11.40;7.17;;;;;;;;;;4915585;29;20239;-60
2022/12/31 05:10:16;;;;;;;11.10;6.80;;;;;;;;;;4914752;29;20195;-60
2022/12/31 05:12:43;;;;;;;8.60;5.90;;;;;;;;;;4915384;29;20595;-60
2022/12/31 05:15:10;;;;;;;11.57;8.73;;;;;;;;;;4915470;29;20772;-60
2022/12/31 05:17:37;;;;;;;15.00;9.27;;;;;;;;;;4914376;29;20714;-61
2022/12/31 05:20:04;;;;;;;11.40;8.20;;;;;;;;;;4934586;29;20201;-60
2022/12/31 05:22:31;;;;;;;14.07;7.90;;;;;;;;;;4925261;29;20306;-60
2022/12/31 05:24:58;;;;;;;14.63;8.57;;;;;;;;;;4915046;29;20726;-61
2022/12/31 05:27:24;;;;;;;12.40;8.87;;;;;;;;;;4913792;29;20206;-61
2022/12/31 05:29:51;;;;;;;15.00;8.90;;;;;;;;;;4926906;29;20774;-60
2022/12/31 05:32:18;;;;;;;14.13;8.97;;;;;;;;;;4902078;29;20277;-61
2022/12/31 05:34:44;;;;;;;17.10;10.83;;;;;;;;;;4903421;29;20633;-60
2022/12/31 05:37:11;;;;;;;10.97;7.07;;;;;;;;;;4925024;29;20200;-60
2022/12/31 05:39:38;;;;;;;10.47;4.77;;;;;;;;;;4913932;29;20249;-60
2022/12/31 05:42:04;;;;;;;11.07;6.80;;;;;;;;;;4916900;29;20199;-61
2022/12/31 05:44:31;;;;;;;15.37;10.27;;;;;;;;;;4915360;29;20226;-61
2022/12/31 05:46:58;;;;;;;13.27;8.73;;;;;;;;;;4913907;29;20195;-60
2022/12/31 05:49:24;;;;;;;12.37;7.87;;;;;;;;;;4914827;29;20268;-60
2022/12/31 05:51:51;;;;;;;17.53;9.50;;;;;;;;;;4925899;29;20203;-60
2022/12/31 05:54:18;;;;;;;15.13;10.20;;;;;;;;;;4914030;29;20195;-61
2022/12/31 05:56:44;;;;;;;18.27;9.37;;;;;;;;;;4913559;29;20203;-60
2022/12/31 05:59:11;;;;;;;14.77;10.57;;;;;;;;;;4896092;29;20223;-61
2022/12/31 06:01:39;;;;;;;15.30;8.07;;;;;;;;;;4904612;29;20211;-60
2022/12/31 06:04:05;;;;;;;13.20;8.47;;;;;;;;;;4913607;29;20595;-61
2022/12/31 06:06:32;;;;;;;12.00;8.07;;;;;;;;;;4913474;29;20195;-61
2022/12/31 06:08:59;;;;;;;12.70;8.17;;;;;;;;;;4912447;29;20319;-62
2022/12/31 06:11:25;;;;;;;16.97;11.00;;;;;;;;;;4905135;29;20187;-61
2022/12/31 06:13:52;;;;;;;15.43;9.83;;;;;;;;;;4909230;29;20208;-61
2022/12/31 06:16:19;;;;;;;12.50;7.87;;;;;;;;;;4905180;29;21090;-62
2022/12/31 06:18:46;;;;;;;16.23;8.80;;;;;;;;;;4910639;29;20199;-61
2022/12/31 06:21:14;;;;;;;10.00;6.87;;;;;;;;;;4912871;29;20223;-62
2022/12/31 06:23:41;;;;;;;13.87;7.90;;;;;;;;;;4910437;29;20258;-62
2022/12/31 06:26:08;;;;;;;13.67;9.50;;;;;;;;;;4908826;29;20310;-63
2022/12/31 06:28:35;;;;;;;13.37;8.60;;;;;;;;;;4909068;29;20203;-62
2022/12/31 06:31:03;;;;;;;16.53;9.37;;;;;;;;;;4923210;29;21255;-61
2022/12/31 06:33:30;;;;;;;11.30;7.50;;;;;;;;;;4909368;29;20191;-61
2022/12/31 06:35:58;;;;;;;15.77;9.43;;;;;;;;;;4909518;29;20235;-62
2022/12/31 06:38:43;;;;;;;14.90;9.37;;;;;;;;;;4909112;29;20180;-63
2022/12/31 06:41:11;;;;;;;6.70;4.63;;;;;;;;;;4909700;29;20199;-61
2022/12/31 06:43:38;;;;;;;14.37;8.80;;;;;;;;;;4908537;29;20223;-62
2022/12/31 06:46:05;;;;;;;14.80;9.47;;;;;;;;;;4910628;29;20278;-63
2022/12/31 06:48:32;;;;;;;15.90;9.70;;;;;;;;;;4908892;29;20208;-62
2022/12/31 06:51:06;;;;;;;14.30;9.47;;;;;;;;;;4906894;29;20211;-62
2022/12/31 06:53:40;;;;;;;14.67;9.87;;;;;;;;;;4909288;29;20287;-61
2022/12/31 06:56:28;;;;;;;10.67;7.37;;;;;;;;;;4908338;29;20258;-62
2022/12/31 06:59:01;;;;;;;8.67;6.07;;;;;;;;;;4904521;29;20674;-61
2022/12/31 07:01:34;;;;;;;12.37;7.97;;;;;;;;;;4907964;29;20588;-62
2022/12/31 07:04:01;;;;;;;9.77;6.77;;;;;;;;;;4913451;29;20631;-61
2022/12/31 07:06:54;;;;;;;11.43;5.00;;;;;;;;;;4894359;29;20247;-62
2022/12/31 07:09:24;;;;;;;13.73;9.23;;;;;;;;;;4907356;29;20214;-62
2022/12/31 07:12:11;;;;;;;10.30;6.73;;;;;;;;;;4910286;29;20684;-60
2022/12/31 07:14:56;;;;;;;12.00;8.27;;;;;;;;;;4910138;29;20300;-61
2022/12/31 07:17:42;;;;;;;12.70;8.47;;;;;;;;;;4913467;29;20196;-63
2022/12/31 07:20:10;;;;;;;13.43;8.37;;;;;;;;;;4907846;29;20310;-61
2022/12/31 07:22:54;;;;;;;8.97;5.83;;;;;;;;;;4902847;29;20238;-61
2022/12/31 07:25:23;;;;;;;10.43;6.97;;;;;;;;;;4901345;29;20257;-61
2022/12/31 07:28:00;;;;;;;11.83;7.80;;;;;;;;;;4908009;29;20195;-61
2022/12/31 07:30:46;;;;;;;13.03;6.73;;;;;;;;;;4922003;29;20289;-63
2022/12/31 07:33:15;;;;;;;9.70;6.03;;;;;;;;;;4908141;29;20643;-61
2022/12/31 07:36:01;;;;;;;11.07;7.57;;;;;;;;;;4909298;29;21021;-61
2022/12/31 07:38:49;;;;;;;10.43;7.73;;;;;;;;;;4908414;29;20262;-62
2022/12/31 07:41:19;;;;;;;10.30;6.13;;;;;;;;;;4906717;29;20206;-62
2022/12/31 07:43:46;;;;;;;11.27;6.53;;;;;;;;;;4919717;29;20220;-61
2022/12/31 07:46:13;;;;;;;7.67;5.60;;;;;;;;;;4907091;29;20202;-62
2022/12/31 07:48:40;;;;;;;9.00;6.50;;;;;;;;;;4916598;29;20231;-62
2022/12/31 07:51:08;;;;;;;9.73;6.47;;;;;;;;;;4909641;29;20188;-62
2022/12/31 07:53:35;;;;;;;10.30;6.43;;;;;;;;;;4908961;29;20282;-63
2022/12/31 07:56:03;;;;;;;8.10;6.33;;;;;;;;;;4907586;29;20195;-63
2022/12/31 07:58:46;;;;;;;5.37;4.00;;;;;;;;;;4906587;29;20739;-66
2022/12/31 08:01:14;;;;;;;6.93;5.23;;;;;;;;;;4906754;29;23127;-61
2022/12/31 08:03:44;;;;;;;9.33;6.63;;;;;;;;;;4891757;29;20214;-62
2022/12/31 08:06:17;;;;;;;9.07;6.47;;;;;;;;;;4907441;29;20674;-61
2022/12/31 08:08:56;;;;;;;7.60;5.37;;;;;;;;;;4904560;29;20223;-61
2022/12/31 08:11:23;;;;;;;7.90;6.17;;;;;;;;;;4911110;29;20192;-60
2022/12/31 08:13:51;;;;;;;9.93;6.77;;;;;;;;;;4912611;29;20188;-60
2022/12/31 08:16:22;;;;;;;7.40;6.30;;;;;;;;;;4911630;29;20738;-61
2022/12/31 08:18:49;;;;;;;8.80;5.90;;;;;;;;;;4903324;29;20247;-60
2022/12/31 08:21:21;;;;;;;9.30;6.10;;;;;;;;;;4912854;29;20199;-60
2022/12/31 08:24:13;;;;;;;6.17;3.97;;;;;;;;;;4927653;29;20207;-60
2022/12/31 08:27:06;;;;;;;12.93;6.90;;;;;;;;;;4921993;29;20238;-60
2022/12/31 08:29:34;;;;;;;11.43;6.30;;;;;;;;;;4902433;29;20294;-60
2022/12/31 08:32:21;;;;;;;8.57;6.33;;;;;;;;;;4908111;29;20564;-60
2022/12/31 08:34:59;;;;;;;9.40;5.70;;;;;;;;;;4920129;29;20230;-61
2022/12/31 08:37:36;;;;;;;5.90;4.30;;;;;;;;;;4917334;29;20265;-61
2022/12/31 08:40:12;;;;;;;9.10;6.37;;;;;;;;;;4932187;29;20297;-61
2022/12/31 08:43:02;;;;;;;8.63;5.47;;;;;;;;;;4914225;29;20203;-61
2022/12/31 08:45:36;;;;;;;8.53;6.87;;;;;;;;;;4896106;29;20211;-61
2022/12/31 08:48:04;;;;;;;9.53;6.57;;;;;;;;;;4904236;29;20199;-61
2022/12/31 08:50:31;;;;;;;10.27;5.93;;;;;;;;;;4912808;29;20194;-61
2022/12/31 08:52:58;;;;;;;8.50;6.17;;;;;;;;;;4916407;29;20192;-61
2022/12/31 08:55:25;;;;;;;9.50;6.07;;;;;;;;;;4916466;29;20199;-61
2022/12/31 08:57:57;;;;;;;7.27;5.70;;;;;;;;;;4916380;29;20255;-61
2022/12/31 09:00:24;;;;;;;8.77;5.60;;;;;;;;;;4913977;29;20735;-61
2022/12/31 09:02:54;;;;;;;8.17;5.50;;;;;;;;;;4930781;29;20203;-61
2022/12/31 09:05:43;;;;;;;8.00;5.50;;;;;;;;;;4905667;29;20204;-61
2022/12/31 09:08:18;;;;;;;7.50;4.93;;;;;;;;;;4916105;29;20200;-61
2022/12/31 09:10:49;;;;;;;7.77;5.63;;;;;;;;;;4916092;29;20199;-61
2022/12/31 09:13:16;;;;;;;7.23;5.33;;;;;;;;;;4930525;29;20236;-61
2022/12/31 09:15:45;;;;;;;7.20;5.20;;;;;;;;;;4915820;29;20306;-60
2022/12/31 09:18:13;;;;;;;6.50;3.97;;;;;;;;;;4928966;29;20213;-61
2022/12/31 09:20:40;;;;;;;5.60;4.77;;;;;;;;;;4912958;29;20179;-60
2022/12/31 09:23:10;;;;;;;6.03;4.73;;;;;;;;;;4914541;29;20219;-61
2022/12/31 09:25:52;;;;;;;7.57;5.23;;;;;;;;;;4916079;29;20239;-61
2022/12/31 09:28:31;;;;;;;7.60;5.47;;;;;;;;;;4930883;29;20285;-61
2022/12/31 09:31:02;;;;;;;6.97;5.20;;;;;;;;;;4916229;29;20200;-61
2022/12/31 09:33:45;;;;;;;5.80;4.77;;;;;;;;;;4929769;29;20222;-61
2022/12/31 09:36:15;;;;;;;7.03;5.00;;;;;;;;;;4926104;29;20283;-61
2022/12/31 09:39:02;;;;;;;7.73;4.83;;;;;;;;;;4930326;29;20188;-61
2022/12/31 09:41:37;;;;;;;8.23;5.20;;;;;;;;;;4923506;29;20290;-61
2022/12/31 09:44:22;;;;;;;7.20;5.70;;;;;;;;;;4922765;29;20203;-61
2022/12/31 09:46:58;;;;;;;6.60;5.00;;;;;;;;;;4921549;29;20262;-61
2022/12/31 09:49:43;;;;;;;6.93;5.57;;;;;;;;;;4920483;29;20195;-60
2022/12/31 09:52:13;;;;;;;8.87;5.83;;;;;;;;;;4900929;29;20199;-61
2022/12/31 09:54:40;;;;;;;7.50;5.37;;;;;;;;;;4916352;29;20255;-61
2022/12/31 09:57:16;;;;;;;8.10;6.07;;;;;;;;;;4919463;29;20202;-60
2022/12/31 10:00:03;;;;;;;8.57;6.30;;;;;;;;;;4915595;29;20285;-61
2022/12/31 10:02:52;;;;;;;8.83;6.50;;;;;;;;;;4914247;29;20199;-61
2022/12/31 10:05:40;;;;;;;9.33;6.80;;;;;;;;;;4919794;29;20254;-61
2022/12/31 10:08:07;;;;;;;9.57;7.07;;;;;;;;;;4917407;29;20735;-61
2022/12/31 10:10:54;;;;;;;9.23;7.27;;;;;;;;;;4899265;29;20207;-62
2022/12/31 10:13:27;;;;;;;9.57;6.33;;;;;;;;;;4910836;29;20203;-60
2022/12/31 10:16:00;;;;;;;9.47;7.30;;;;;;;;;;4914461;29;20237;-61
2022/12/31 10:18:46;;;;;;;8.77;7.13;;;;;;;;;;4914088;29;20198;-61
2022/12/31 10:21:21;;;;;;;9.07;7.13;;;;;;;;;;4913258;29;20211;-61
2022/12/31 10:24:04;;;;;;;10.53;8.27;;;;;;;;;;4915539;29;20599;-61
2022/12/31 10:26:38;;;;;;;10.13;8.40;;;;;;;;;;4904366;29;20227;-61
2022/12/31 10:29:08;;;;;;;11.67;9.57;;;;;;;;;;4913698;29;20196;-60
2022/12/31 10:31:38;;;;;;;13.67;7.93;;;;;;;;;;4927564;29;20196;-60
2022/12/31 10:34:12;;;;;;;11.83;8.43;;;;;;;;;;4913374;29;20208;-61
2022/12/31 10:36:47;;;;;;;10.87;8.27;;;;;;;;;;4921198;29;20275;-61
2022/12/31 10:39:29;;;;;;;9.17;7.37;;;;;;;;;;4903108;29;20288;-60
2022/12/31 10:42:18;;;;;;;10.27;7.30;;;;;;;;;;4915980;29;20199;-61
2022/12/31 10:45:04;;;;;;;8.93;7.47;;;;;;;;;;4918894;29;20307;-60
2022/12/31 10:47:37;;;;;;;11.03;7.20;;;;;;;;;;4909037;29;20223;-60
2022/12/31 10:50:22;;;;;;;9.37;7.57;;;;;;;;;;4912267;29;20255;-61
2022/12/31 10:52:49;;;;;;;10.73;8.27;;;;;;;;;;4899173;29;20188;-61
2022/12/31 10:55:34;;;;;;;11.27;8.63;;;;;;;;;;4904832;29;20223;-61
2022/12/31 10:58:07;;;;;;;11.70;8.97;;;;;;;;;;4903424;28;20261;-61
2022/12/31 11:00:39;;;;;;;12.20;10.20;;;;;;;;;;4905258;29;20686;-61
2022/12/31 11:03:26;;;;;;;11.67;9.17;;;;;;;;;;4911537;29;20830;-61
2022/12/31 11:06:04;;;;;;;11.37;9.07;;;;;;;;;;4900989;29;20600;-62
2022/12/31 11:08:43;;;;;;;10.27;8.53;;;;;;;;;;4910242;29;20203;-62
2022/12/31 11:11:13;;;;;;;11.33;8.47;;;;;;;;;;4910806;29;20188;-61
2022/12/31 11:13:44;;;;;;;10.67;8.63;;;;;;;;;;4909302;29;20207;-61
2022/12/31 11:16:14;;;;;;;9.93;8.10;;;;;;;;;;4911917;29;20199;-62
2022/12/31 11:18:50;;;;;;;11.37;8.67;;;;;;;;;;4911609;29;20267;-61
2022/12/31 11:21:23;;;;;;;9.67;7.93;;;;;;;;;;4912783;29;21022;-62
2022/12/31 11:23:54;;;;;;;9.60;7.50;;;;;;;;;;4894947;29;20716;-61
2022/12/31 11:26:39;;;;;;;11.37;8.47;;;;;;;;;;4924383;29;20226;-61
2022/12/31 11:29:15;;;;;;;9.20;6.97;;;;;;;;;;4931797;29;20198;-62
2022/12/31 11:32:05;;;;;;;8.73;6.80;;;;;;;;;;4929199;29;20281;-62
2022/12/31 11:34:38;;;;;;;8.23;5.63;;;;;;;;;;4924077;29;20282;-61
2022/12/31 11:37:11;;;;;;;9.33;8.13;;;;;;;;;;4931901;29;20277;-61
2022/12/31 11:39:40;;;;;;;10.63;8.30;;;;;;;;;;4931689;29;20983;-61
2022/12/31 11:42:20;;;;;;;10.67;8.20;;;;;;;;;;4932135;29;20186;-63
2022/12/31 11:44:50;;;;;;;9.80;7.00;;;;;;;;;;4934712;29;20709;-61
2022/12/31 11:47:43;;;;;;;10.63;8.20;;;;;;;;;;4935399;29;20205;-61
2022/12/31 11:50:30;;;;;;;8.30;6.00;;;;;;;;;;4925239;29;20546;-63
2022/12/31 11:53:05;;;;;;;10.53;7.37;;;;;;;;;;4935224;29;20175;-62
2022/12/31 11:55:36;;;;;;;11.33;7.97;;;;;;;;;;4935162;29;20574;-62
2022/12/31 11:58:32;;;;;;;10.73;7.57;;;;;;;;;;4934299;29;20190;-62
2022/12/31 12:00:59;;;;;;;8.63;7.23;;;;;;;;;;4905039;29;20222;-62
2022/12/31 12:03:25;;;;;;;6.43;5.30;;;;;;;;;;4933991;29;20670;-61
2022/12/31 12:05:52;;;;;;;11.00;6.60;;;;;;;;;;4942265;29;20304;-61
2022/12/31 12:08:19;;;;;;;8.53;5.57;;;;;;;;;;4932455;29;20195;-62
2022/12/31 12:10:47;;;;;;;9.73;5.97;;;;;;;;;;4935423;29;20214;-62
2022/12/31 12:13:14;;;;;;;4.40;3.73;;;;;;;;;;4933483;29;20194;-62
2022/12/31 12:15:41;;;;;;;6.73;4.80;;;;;;;;;;4933943;29;20603;-62
2022/12/31 12:18:09;;;;;;;7.60;5.20;;;;;;;;;;4935203;29;20876;-63
2022/12/31 12:20:36;;;;;;;8.17;4.33;;;;;;;;;;4934990;29;20713;-62
2022/12/31 12:23:13;;;;;;;7.67;4.93;;;;;;;;;;4935014;29;20202;-62
2022/12/31 12:25:41;;;;;;;6.30;3.90;;;;;;;;;;4925628;29;20235;-62
2022/12/31 12:28:18;;;;;;;6.17;3.57;;;;;;;;;;4914699;29;20192;-62
2022/12/31 12:31:03;;;;;;;3.97;3.10;;;;;;;;;;4914732;29;20604;-62
2022/12/31 12:33:40;;;;;;;3.13;2.40;;;;;;;;;;4915647;29;20234;-62
2022/12/31 12:36:11;;;;;;;4.77;3.27;;;;;;;;;;4916102;29;20210;-62
2022/12/31 12:38:37;;;;;;;9.40;5.43;;;;;;;;;;4910275;29;20220;-62
2022/12/31 12:41:05;;;;;;;6.77;4.43;;;;;;;;;;4919961;29;20250;-62
2022/12/31 12:43:33;;;;;;;4.43;3.20;;;;;;;;;;4923633;29;20191;-60
2022/12/31 12:46:20;;;;;;;6.00;3.60;;;;;;;;;;4924031;29;20190;-62
2022/12/31 12:48:48;;;;;;;6.83;3.93;;;;;;;;;;4926389;29;20184;-61
2022/12/31 12:51:22;;;;;;;5.10;3.40;;;;;;;;;;4930784;29;20196;-63
2022/12/31 12:53:52;;;;;;;4.70;3.40;;;;;;;;;;4930322;29;20264;-61
2022/12/31 12:56:26;;;;;;;4.97;3.93;;;;;;;;;;4921959;29;20206;-61
2022/12/31 12:58:56;;;;;;;6.67;4.47;;;;;;;;;;4914676;29;20227;-61
2022/12/31 13:01:25;;;;;;;7.53;5.43;;;;;;;;;;4907421;29;20582;-61
2022/12/31 13:03:58;;;;;;;8.20;5.90;;;;;;;;;;4930455;29;20200;-65
2022/12/31 13:06:52;;;;;;;6.83;4.97;;;;;;;;;;4906062;29;20215;-61
2022/12/31 13:09:28;;;;;;;10.17;6.47;;;;;;;;;;4915526;29;20194;-62
2022/12/31 13:12:08;;;;;;;10.67;7.63;;;;;;;;;;4915995;29;20199;-62
2022/12/31 13:14:58;;;;;;;11.70;8.23;;;;;;;;;;4929817;29;20199;-62
2022/12/31 13:17:31;;;;;;;11.83;7.60;;;;;;;;;;4908996;29;20214;-62
2022/12/31 13:20:01;;;;;;;10.63;8.90;;;;;;;;;;4931992;29;20223;-62
2022/12/31 13:22:33;;;;;;;10.37;8.30;;;;;;;;;;4917579;29;20184;-62
2022/12/31 13:25:16;;;;;;;9.30;6.70;;;;;;;;;;4919245;29;20337;-62
2022/12/31 13:27:43;;;;;;;11.70;8.33;;;;;;;;;;4917410;29;20202;-62
2022/12/31 13:30:20;;;;;;;11.70;9.13;;;;;;;;;;4915558;29;20544;-62
2022/12/31 13:32:51;;;;;;;9.40;7.33;;;;;;;;;;4908459;29;20262;-62
2022/12/31 13:35:21;;;;;;;11.87;9.00;;;;;;;;;;4914236;29;20198;-64
2022/12/31 13:37:48;;;;;;;10.93;8.83;;;;;;;;;;4928517;29;20202;-62
2022/12/31 13:40:23;;;;;;;9.40;6.20;;;;;;;;;;4928335;29;20191;-62
2022/12/31 13:43:13;;;;;;;12.90;8.30;;;;;;;;;;4921200;29;20302;-63
2022/12/31 13:45:42;;;;;;;10.20;7.10;;;;;;;;;;4911834;29;20223;-64
2022/12/31 13:48:32;;;;;;;9.60;7.27;;;;;;;;;;4910703;29;20532;-63
2022/12/31 13:51:00;;;;;;;12.60;9.43;;;;;;;;;;4909140;29;20294;-64
2022/12/31 13:53:46;;;;;;;12.57;9.50;;;;;;;;;;4915359;29;20269;-65
2022/12/31 13:56:15;;;;;;;12.53;8.97;;;;;;;;;;4914397;29;20554;-64
2022/12/31 13:58:43;;;;;;;8.77;6.70;;;;;;;;;;4912559;29;20192;-61
2022/12/31 14:01:35;;;;;;;12.33;9.43;;;;;;;;;;4917137;28;20227;-62
2022/12/31 14:04:13;;;;;;;11.63;8.70;;;;;;;;;;4915200;29;20861;-61
2022/12/31 14:06:54;;;;;;;12.10;8.93;;;;;;;;;;4919338;29;20192;-62
2022/12/31 14:09:24;;;;;;;27.17;10.13;;;;;;;;;;4897346;29;20278;-62
2022/12/31 14:11:58;;;;;;;27.47;10.70;;;;;;;;;;4913551;29;20207;-66
2022/12/31 14:14:41;;;;;;;9.40;7.03;;;;;;;;;;4897767;29;20198;-65
2022/12/31 14:17:16;;;;;;;8.97;5.40;;;;;;;;;;4913721;29;20208;-65
2022/12/31 14:19:46;;;;;;;13.10;8.53;;;;;;;;;;4898009;29;20207;-65
2022/12/31 14:22:23;;;;;;;10.90;6.60;;;;;;;;;;4914286;29;20195;-65
2022/12/31 14:24:51;;;;;;;21.53;8.40;;;;;;;;;;4913186;29;20226;-64
2022/12/31 14:27:20;;;;;;;7.90;6.23;;;;;;;;;;4928801;29;20187;-64
2022/12/31 14:29:47;;;;;;;11.30;7.27;;;;;;;;;;4914569;29;20206;-66
2022/12/31 14:32:22;;;;;;;11.37;6.83;;;;;;;;;;4914540;29;20291;-65
2022/12/31 14:34:52;;;;;;;9.90;7.43;;;;;;;;;;4914619;29;20250;-65
2022/12/31 14:37:37;;;;;;;8.67;6.47;;;;;;;;;;4928539;29;20191;-62
2022/12/31 14:40:22;;;;;;;10.13;7.20;;;;;;;;;;4914331;29;20667;-63
2022/12/31 14:43:08;;;;;;;8.47;6.27;;;;;;;;;;4914476;29;20211;-62
2022/12/31 14:45:53;;;;;;;13.80;9.27;;;;;;;;;;4927839;29;20227;-62
2022/12/31 14:48:29;;;;;;;11.57;7.97;;;;;;;;;;4912873;29;20237;-62
2022/12/31 14:50:57;;;;;;;12.33;6.93;;;;;;;;;;4914801;29;20199;-62
2022/12/31 14:53:25;;;;;;;9.93;6.77;;;;;;;;;;4916239;29;20242;-62
2022/12/31 14:55:55;;;;;;;11.70;8.93;;;;;;;;;;4924891;29;20202;-62
2022/12/31 14:58:32;;;;;;;12.47;8.70;;;;;;;;;;4918236;29;20187;-62
2022/12/31 15:01:05;;;;;;;11.03;8.47;;;;;;;;;;4898077;29;20306;-62
2022/12/31 15:03:33;;;;;;;12.67;8.93;;;;;;;;;;4915371;29;20204;-62
2022/12/31 15:06:07;;;;;;;10.43;8.17;;;;;;;;;;4914224;29;20713;-62
2022/12/31 15:08:38;;;;;;;11.33;7.80;;;;;;;;;;4913649;29;20191;-63
2022/12/31 15:11:27;;;;;;;9.23;7.17;;;;;;;;;;4924592;29;20622;-63
2022/12/31 15:13:55;;;;;;;9.37;6.57;;;;;;;;;;4927388;29;20286;-62
2022/12/31 15:16:40;;;;;;;8.73;6.57;;;;;;;;;;4915962;29;20175;-62
2022/12/31 15:19:07;;;;;;;8.63;6.40;;;;;;;;;;4910672;29;20267;-62
2022/12/31 15:21:40;;;;;;;9.93;6.70;;;;;;;;;;4915293;29;20204;-62
2022/12/31 15:24:16;;;;;;;8.30;5.53;;;;;;;;;;4921882;29;20195;-62
2022/12/31 15:26:51;;;;;;;9.30;6.67;;;;;;;;;;4906727;29;20765;-63
2022/12/31 15:29:22;;;;;;;7.13;5.77;;;;;;;;;;4912257;29;20191;-62
2022/12/31 15:32:06;;;;;;;5.13;4.50;;;;;;;;;;4911221;29;20267;-63
2022/12/31 15:34:34;;;;;;;6.83;5.27;;;;;;;;;;4907715;29;20207;-62
2022/12/31 15:37:02;;;;;;;7.67;5.30;;;;;;;;;;4911292;29;20207;-62
2022/12/31 15:39:32;;;;;;;6.57;5.33;;;;;;;;;;4913335;29;20195;-62
2022/12/31 15:41:59;;;;;;;7.03;5.17;;;;;;;;;;4913706;29;20223;-63
2022/12/31 15:44:54;;;;;;;5.87;5.20;;;;;;;;;;4903492;29;20226;-62
2022/12/31 15:47:27;;;;;;;6.83;5.07;;;;;;;;;;4904454;29;20203;-62
2022/12/31 15:49:54;;;;;;;4.87;3.93;;;;;;;;;;4912608;29;20195;-62